Terminal Aerodrome Forecast
Issued by NWS Bismarck, ND

Home | Current Version | Previous Version | Text Only | Print | Product List | Glossary On
Versions: 1 2 3 4 5 6 7 8 9 10 11 12 13 14 15 16 17 18 19 20
000
FTUS43 KBIS 180500
TAFBIS
TAF
KBIS 180535Z 1806/1906 13007KT P6SM SCT015 BKN090
     FM180900 14007KT P6SM OVC015
     FM181400 15007KT P6SM -SN OVC012
      TEMPO 1814/1818 3SM -SN BR OVC008
     FM182000 18006KT P6SM OVC015=

USA.gov is the U.S. government's official web portal to all federal, state and local government web resources and services.